Ocean Garlic — V7PE3 — position and weather

sailwx.info

Track history (hours):
 
Tides and Currents Weather Stations Pressure Air Temp Water Temp Dewpoint Dewpoint Depression Visibility Wind Speed Wind Dir Waves Ship Positions

Ocean Garlic

Last reported at 2018-Jul-20 22:57 UTC. Time now 2018-Jul-22 19:48 UTC.
Position S 24°46' W 044°42'.

Length 229 m; draft 13.3 m.

Type: Cargo ship. MMSI: 538006845.

Date/timePositionNaut miles runAvg speedWind from/ knotsBaromVisibWave heightAir tempDewpointWater temp
2018-Jul-20 22:57S 24°46' W 044°42'611.1
2018-Jul-20 22:25S 24°45' W 044°48'510.8
2018-Jul-20 22:00S 24°44' W 044°53'510.7
2018-Jul-20 21:30S 24°43' W 044°59'510.9
2018-Jul-20 21:00S 24°42' W 045°05'611.2
2018-Jul-20 20:30S 24°41' W 045°11'511.2
2018-Jul-20 20:00S 24°40' W 045°17'611.2
2018-Jul-20 19:30S 24°39' W 045°23'611.1
2018-Jul-20 19:00S 24°38' W 045°29'611.2
2018-Jul-20 18:30S 24°37' W 045°35'611.5
2018-Jul-20 18:00S 24°36' W 045°41'611.4
2018-Jul-20 17:30S 24°35' W 045°47'611.2
2018-Jul-20 17:00S 24°34' W 045°53'611.2
2018-Jul-20 16:30S 24°33' W 045°60'611.2
2018-Jul-20 16:00S 24°32' W 046°06'510.4
2018-Jul-20 15:30S 24°30' W 046°11'611.3
2018-Jul-20 15:00S 24°26' W 046°15'611.5
2018-Jul-20 14:30S 24°22' W 046°19'510.6
2018-Jul-20 14:00S 24°18' W 046°23'611.4
2018-Jul-20 13:30S 24°12' W 046°23'510.7
2018-Jul-20 13:00S 24°06' W 046°23'5 9.4
2018-Jul-20 12:30S 24°02' W 046°21'3 6.6
2018-Jul-20 12:00S 23°60' W 046°19'  
2018-Jul-16 08:02S 23°57' W 046°19'1 5.6
2018-Jul-16 07:47S 23°58' W 046°18'2 5.6
2018-Jul-16 07:29S 23°60' W 046°18'3 6.1
2018-Jul-16 07:00S 24°01' W 046°21'2 4.0
2018-Jul-16 06:31S 24°03' W 046°20'4 7.2
2018-Jul-16 06:00S 24°06' W 046°18'1 2.3
2018-Jul-16 05:30S 24°08' W 046°18'0 0.0
2018-Jul-16 05:00S 24°08' W 046°18'0 0.0
2018-Jul-16 04:27S 24°08' W 046°18'0 0.1
2018-Jul-16 04:00S 24°08' W 046°18'0 0.1
2018-Jul-16 03:30S 24°08' W 046°18'0 0.1
2018-Jul-16 03:00S 24°08' W 046°18'0 0.1
2018-Jul-16 02:30S 24°08' W 046°18'0 0.0
2018-Jul-16 02:00S 24°08' W 046°18'0 0.0
2018-Jul-16 01:30S 24°08' W 046°18'0 0.1
2018-Jul-16 01:00S 24°08' W 046°18'0 0.1
2018-Jul-16 00:30S 24°08' W 046°18'0 0.0
2018-Jul-15 23:54S 24°08' W 046°18'0 0.1
2018-Jul-15 23:30S 24°08' W 046°18'0 0.0
2018-Jul-15 23:00S 24°08' W 046°18'0 0.0
2018-Jul-15 22:30S 24°08' W 046°18'0 0.0
2018-Jul-15 22:00S 24°08' W 046°18'0 0.0
2018-Jul-15 21:30S 24°08' W 046°18'0 0.0
2018-Jul-15 21:00S 24°08' W 046°18'0 0.0
2018-Jul-15 20:30S 24°08' W 046°18'0 0.0
2018-Jul-15 20:00S 24°08' W 046°18'0 0.0
2018-Jul-15 19:30S 24°08' W 046°18'0 0.0
2018-Jul-15 19:00S 24°08' W 046°18'0 0.0
2018-Jul-15 18:30S 24°08' W 046°18'0 0.0
2018-Jul-15 18:00S 24°08' W 046°18'0 0.0
2018-Jul-15 17:30S 24°08' W 046°18'0 0.0
2018-Jul-15 16:57S 24°08' W 046°18'0 0.0
2018-Jul-15 16:15S 24°08' W 046°18'0 0.0
2018-Jul-15 16:00S 24°08' W 046°18'0 0.1
2018-Jul-15 15:30S 24°08' W 046°18'0 0.1
2018-Jul-15 15:00S 24°08' W 046°18'0 0.1
2018-Jul-15 14:21S 24°08' W 046°18'0 0.0
2018-Jul-15 14:00S 24°08' W 046°18'0 0.0
2018-Jul-15 13:30S 24°08' W 046°18'0 0.0
2018-Jul-15 13:00S 24°08' W 046°18'0 0.0
2018-Jul-15 12:21S 24°08' W 046°18'0 0.1
2018-Jul-15 12:00S 24°08' W 046°18'0 0.0
2018-Jul-15 11:30S 24°08' W 046°18'0 0.0
2018-Jul-15 11:00S 24°08' W 046°18'0 0.0
2018-Jul-15 10:30S 24°08' W 046°18'0 0.0
2018-Jul-15 09:57S 24°08' W 046°18'0 0.1
2018-Jul-15 09:27S 24°08' W 046°18'0 0.1
2018-Jul-15 09:00S 24°08' W 046°18'0 0.0
2018-Jul-15 08:30S 24°08' W 046°18'0 0.1
2018-Jul-15 08:00S 24°08' W 046°18'0 0.0
2018-Jul-15 07:30S 24°08' W 046°18'0 0.0
2018-Jul-15 07:00S 24°08' W 046°18'0 0.0
2018-Jul-15 06:30S 24°08' W 046°18'0 0.0
2018-Jul-15 06:00S 24°08' W 046°18'0 0.1
2018-Jul-15 05:30S 24°08' W 046°18'0 0.0
2018-Jul-15 05:00S 24°08' W 046°18'0 0.0
2018-Jul-15 04:30S 24°08' W 046°18'0 0.1
2018-Jul-15 04:00S 24°08' W 046°18'0 0.1
2018-Jul-15 03:30S 24°08' W 046°18'0 0.0
2018-Jul-15 03:00S 24°08' W 046°18'0 0.0
2018-Jul-15 02:30S 24°08' W 046°18'0 0.1
2018-Jul-15 02:00S 24°08' W 046°18'0 0.1
2018-Jul-15 01:30S 24°08' W 046°18'0 0.0
2018-Jul-15 00:57S 24°08' W 046°18'0 0.1
2018-Jul-15 00:30S 24°08' W 046°18'0 0.0
2018-Jul-15 00:00S 24°08' W 046°18'0 0.1
2018-Jul-14 23:30S 24°08' W 046°18'0 0.1
2018-Jul-14 23:00S 24°08' W 046°18'0 0.0
2018-Jul-14 22:30S 24°08' W 046°18'0 0.1
2018-Jul-14 22:00S 24°08' W 046°18'0 0.0
2018-Jul-14 21:30S 24°08' W 046°18'0 0.1
2018-Jul-14 21:00S 24°08' W 046°18'0 0.0
2018-Jul-14 20:30S 24°08' W 046°18'0 0.0
2018-Jul-14 19:57S 24°08' W 046°18'0 0.0
2018-Jul-14 19:30S 24°08' W 046°18'0 0.0
2018-Jul-14 19:00S 24°08' W 046°18'0 0.0
2018-Jul-14 18:24S 24°08' W 046°18'0 0.0
2018-Jul-14 18:00S 24°08' W 046°18'0 0.0
2018-Jul-14 17:30S 24°08' W 046°18'0 0.0
2018-Jul-14 17:00S 24°08' W 046°18'0 0.1
2018-Jul-14 16:30S 24°08' W 046°18'0 0.0
2018-Jul-14 16:00S 24°08' W 046°18'0 0.0
2018-Jul-14 15:30S 24°08' W 046°18'0 0.0
2018-Jul-14 14:51S 24°08' W 046°18'0 0.1
2018-Jul-14 14:30S 24°08' W 046°18'0 0.0
2018-Jul-14 13:30S 24°08' W 046°18'0 0.1
2018-Jul-14 13:00S 24°08' W 046°18'0 0.1
2018-Jul-14 12:30S 24°08' W 046°18'0 0.2
2018-Jul-14 12:00S 24°07' W 046°18'0 0.2
2018-Jul-14 11:30S 24°08' W 046°18'0 0.1
2018-Jul-14 11:00S 24°08' W 046°18'0 0.0
2018-Jul-14 10:30S 24°08' W 046°18'0 0.0
2018-Jul-14 10:00S 24°08' W 046°18'0 0.2
2018-Jul-14 09:18S 24°07' W 046°18'0 0.0
2018-Jul-14 09:00S 24°07' W 046°18'0 0.0
2018-Jul-14 08:30S 24°07' W 046°18'0 0.0
2018-Jul-14 08:00S 24°07' W 046°18'0 0.0
2018-Jul-14 07:27S 24°07' W 046°18'0 0.0
2018-Jul-14 07:00S 24°07' W 046°18'0 0.1
2018-Jul-14 06:30S 24°07' W 046°18'0 0.1
2018-Jul-14 05:57S 24°07' W 046°18'0 0.1
2018-Jul-14 05:30S 24°07' W 046°18'0 0.0
2018-Jul-14 05:00S 24°07' W 046°18'0 0.0
2018-Jul-14 04:30S 24°08' W 046°18'0 0.0
2018-Jul-14 04:00S 24°07' W 046°18'0 0.1
2018-Jul-14 03:30S 24°08' W 046°18'0 0.0
2018-Jul-14 03:00S 24°08' W 046°18'0 0.0
2018-Jul-14 02:24S 24°08' W 046°18'0 0.0
2018-Jul-14 02:00S 24°08' W 046°18'0 0.0
2018-Jul-14 01:27S 24°08' W 046°18'0 0.0
2018-Jul-14 01:00S 24°08' W 046°18'0 0.0
2018-Jul-14 00:30S 24°07' W 046°18'0 0.0
2018-Jul-14 00:00S 24°07' W 046°18'0 0.0
2018-Jul-13 23:30S 24°07' W 046°18'0 0.0
2018-Jul-13 23:00S 24°07' W 046°18'0 0.0
2018-Jul-13 22:30S 24°07' W 046°18'0 0.0
2018-Jul-13 22:00S 24°07' W 046°18'0 0.0
2018-Jul-13 21:30S 24°07' W 046°18'0 0.0
2018-Jul-13 21:00S 24°07' W 046°18'0 0.0
2018-Jul-13 20:27S 24°07' W 046°18'0 0.0
2018-Jul-13 19:54S 24°07' W 046°18'0 0.0
2018-Jul-13 19:30S 24°07' W 046°18'0 0.0
2018-Jul-13 19:00S 24°07' W 046°18'0 0.0
2018-Jul-13 18:30S 24°07' W 046°18'0 0.1
2018-Jul-13 18:00S 24°07' W 046°18'0 0.0
2018-Jul-13 17:30S 24°07' W 046°18'0 0.0
2018-Jul-13 17:00S 24°07' W 046°18'0 0.0
2018-Jul-13 16:30S 24°07' W 046°18'0 0.0
2018-Jul-13 16:00S 24°07' W 046°18'0 0.0
2018-Jul-13 15:27S 24°07' W 046°18'0 0.0
2018-Jul-13 15:00S 24°07' W 046°18'0 0.0
2018-Jul-13 14:00S 24°07' W 046°18'0 0.0
2018-Jul-13 13:30S 24°07' W 046°18'0 0.1
2018-Jul-13 12:48S 24°07' W 046°18'0 0.1
2018-Jul-13 12:30S 24°08' W 046°18'0 0.0
2018-Jul-13 12:00S 24°08' W 046°18'0 0.0
2018-Jul-13 11:30S 24°07' W 046°18'0 0.0
2018-Jul-13 10:54S 24°07' W 046°18'0 0.0
2018-Jul-13 10:30S 24°07' W 046°18'0 0.0
2018-Jul-13 10:00S 24°07' W 046°18'0 0.0
2018-Jul-13 09:30S 24°07' W 046°18'0 0.0
2018-Jul-13 09:00S 24°07' W 046°18'0 0.0
2018-Jul-13 08:27S 24°07' W 046°18'0 0.0
2018-Jul-13 08:00S 24°07' W 046°18'0 0.0
2018-Jul-13 07:30S 24°07' W 046°18'0 0.0
2018-Jul-13 07:00S 24°07' W 046°18'0 0.0
2018-Jul-13 06:30S 24°07' W 046°18'0 0.0
2018-Jul-13 06:00S 24°07' W 046°18'0 0.0
2018-Jul-13 05:30S 24°07' W 046°18'0 0.0
2018-Jul-13 04:57S 24°07' W 046°18'0 0.0
2018-Jul-13 04:30S 24°07' W 046°18'0 0.0
2018-Jul-13 04:00S 24°07' W 046°18'0 0.0
2018-Jul-13 03:24S 24°07' W 046°18'0 0.1
2018-Jul-13 03:00S 24°07' W 046°18'0 0.0
2018-Jul-13 02:30S 24°07' W 046°18'0 0.0
2018-Jul-13 02:00S 24°07' W 046°18'0 0.0
2018-Jul-13 01:30S 24°07' W 046°18'0 0.0
2018-Jul-13 01:00S 24°07' W 046°18'0 0.0
2018-Jul-13 00:30S 24°07' W 046°18'0 0.0
2018-Jul-13 00:00S 24°07' W 046°18'0 0.0
2018-Jul-12 23:27S 24°07' W 046°18'0 0.0
2018-Jul-12 23:00S 24°07' W 046°18'0 0.0
2018-Jul-12 22:30S 24°07' W 046°18'0 0.1
2018-Jul-12 22:00S 24°07' W 046°18'0 0.0
2018-Jul-12 21:30S 24°07' W 046°18'0 0.0
2018-Jul-12 21:00S 24°07' W 046°18'0 0.0
2018-Jul-12 20:30S 24°07' W 046°18'0 0.0
2018-Jul-12 19:57S 24°07' W 046°18'0 0.0
2018-Jul-12 19:30S 24°07' W 046°18'0 0.0
2018-Jul-12 19:00S 24°07' W 046°18'0 0.2
2018-Jul-12 18:30S 24°08' W 046°18'1 2.7
2018-Jul-12 18:00S 24°07' W 046°19'2 4.3
2018-Jul-12 17:30S 24°05' W 046°20'1 2.0
2018-Jul-12 16:55S 24°04' W 046°21'0 0.0
2018-Jul-12 16:31S 24°04' W 046°21'0 0.1
2018-Jul-12 15:58S 24°04' W 046°21'0 0.0
2018-Jul-12 15:19S 24°04' W 046°21'0 0.0
2018-Jul-12 14:52S 24°04' W 046°21'0 0.1
2018-Jul-12 14:28S 24°04' W 046°21'0 0.1
2018-Jul-12 14:01S 24°04' W 046°21'0 0.0
2018-Jul-12 13:28S 24°04' W 046°21'0 0.1
2018-Jul-12 12:58S 24°04' W 046°21'0 0.2
2018-Jul-12 12:25S 24°04' W 046°21'0 0.9
2018-Jul-12 12:00S 24°04' W 046°21'3 5.9
2018-Jul-12 11:30S 24°07' W 046°22'4 7.2
2018-Jul-12 11:00S 24°10' W 046°23'712.7
2018-Jul-12 10:29S 24°17' W 046°24'611.8
2018-Jul-12 10:00S 24°21' W 046°20'612.2
2018-Jul-12 09:30S 24°25' W 046°15'  
Track history (hours):
 
Tides and Currents Weather Stations Pressure Air Temp Water Temp Dewpoint Dewpoint Depression Visibility Wind Speed Wind Dir Waves Ship Positions

Ocean Garlic

Last reported at 2018-Jul-20 22:57 UTC. Time now 2018-Jul-22 19:48 UTC.
Position S 24°46' W 044°42'.

Length 229 m; draft 13.3 m.

Type: Cargo ship. MMSI: 538006845.

Date/timePositionNaut miles runAvg speedWind from/ knotsBaromVisibWave heightAir tempDewpointWater temp
2018-Jul-20 22:57S 24°46' W 044°42'611.1
2018-Jul-20 22:25S 24°45' W 044°48'510.8
2018-Jul-20 22:00S 24°44' W 044°53'510.7
2018-Jul-20 21:30S 24°43' W 044°59'510.9
2018-Jul-20 21:00S 24°42' W 045°05'611.2
2018-Jul-20 20:30S 24°41' W 045°11'511.2
2018-Jul-20 20:00S 24°40' W 045°17'611.2
2018-Jul-20 19:30S 24°39' W 045°23'611.1
2018-Jul-20 19:00S 24°38' W 045°29'611.2
2018-Jul-20 18:30S 24°37' W 045°35'611.5
2018-Jul-20 18:00S 24°36' W 045°41'611.4
2018-Jul-20 17:30S 24°35' W 045°47'611.2
2018-Jul-20 17:00S 24°34' W 045°53'611.2
2018-Jul-20 16:30S 24°33' W 045°60'611.2
2018-Jul-20 16:00S 24°32' W 046°06'510.4
2018-Jul-20 15:30S 24°30' W 046°11'611.3
2018-Jul-20 15:00S 24°26' W 046°15'611.5
2018-Jul-20 14:30S 24°22' W 046°19'510.6
2018-Jul-20 14:00S 24°18' W 046°23'611.4
2018-Jul-20 13:30S 24°12' W 046°23'510.7
2018-Jul-20 13:00S 24°06' W 046°23'5 9.4
2018-Jul-20 12:30S 24°02' W 046°21'3 6.6
2018-Jul-20 12:00S 23°60' W 046°19'  
2018-Jul-16 08:02S 23°57' W 046°19'1 5.6
2018-Jul-16 07:47S 23°58' W 046°18'2 5.6
2018-Jul-16 07:29S 23°60' W 046°18'3 6.1
2018-Jul-16 07:00S 24°01' W 046°21'2 4.0
2018-Jul-16 06:31S 24°03' W 046°20'4 7.2
2018-Jul-16 06:00S 24°06' W 046°18'1 2.3
2018-Jul-16 05:30S 24°08' W 046°18'0 0.0
2018-Jul-16 05:00S 24°08' W 046°18'0 0.0
2018-Jul-16 04:27S 24°08' W 046°18'0 0.1
2018-Jul-16 04:00S 24°08' W 046°18'0 0.1
2018-Jul-16 03:30S 24°08' W 046°18'0 0.1
2018-Jul-16 03:00S 24°08' W 046°18'0 0.1
2018-Jul-16 02:30S 24°08' W 046°18'0 0.0
2018-Jul-16 02:00S 24°08' W 046°18'0 0.0
2018-Jul-16 01:30S 24°08' W 046°18'0 0.1
2018-Jul-16 01:00S 24°08' W 046°18'0 0.1
2018-Jul-16 00:30S 24°08' W 046°18'0 0.0
2018-Jul-15 23:54S 24°08' W 046°18'0 0.1
2018-Jul-15 23:30S 24°08' W 046°18'0 0.0
2018-Jul-15 23:00S 24°08' W 046°18'0 0.0
2018-Jul-15 22:30S 24°08' W 046°18'0 0.0
2018-Jul-15 22:00S 24°08' W 046°18'0 0.0
2018-Jul-15 21:30S 24°08' W 046°18'0 0.0
2018-Jul-15 21:00S 24°08' W 046°18'0 0.0
2018-Jul-15 20:30S 24°08' W 046°18'0 0.0
2018-Jul-15 20:00S 24°08' W 046°18'0 0.0
2018-Jul-15 19:30S 24°08' W 046°18'0 0.0
2018-Jul-15 19:00S 24°08' W 046°18'0 0.0
2018-Jul-15 18:30S 24°08' W 046°18'0 0.0
2018-Jul-15 18:00S 24°08' W 046°18'0 0.0
2018-Jul-15 17:30S 24°08' W 046°18'0 0.0
2018-Jul-15 16:57S 24°08' W 046°18'0 0.0
2018-Jul-15 16:15S 24°08' W 046°18'0 0.0
2018-Jul-15 16:00S 24°08' W 046°18'0 0.1
2018-Jul-15 15:30S 24°08' W 046°18'0 0.1
2018-Jul-15 15:00S 24°08' W 046°18'0 0.1
2018-Jul-15 14:21S 24°08' W 046°18'0 0.0
2018-Jul-15 14:00S 24°08' W 046°18'0 0.0
2018-Jul-15 13:30S 24°08' W 046°18'0 0.0
2018-Jul-15 13:00S 24°08' W 046°18'0 0.0
2018-Jul-15 12:21S 24°08' W 046°18'0 0.1
2018-Jul-15 12:00S 24°08' W 046°18'0 0.0
2018-Jul-15 11:30S 24°08' W 046°18'0 0.0
2018-Jul-15 11:00S 24°08' W 046°18'0 0.0
2018-Jul-15 10:30S 24°08' W 046°18'0 0.0
2018-Jul-15 09:57S 24°08' W 046°18'0 0.1
2018-Jul-15 09:27S 24°08' W 046°18'0 0.1
2018-Jul-15 09:00S 24°08' W 046°18'0 0.0
2018-Jul-15 08:30S 24°08' W 046°18'0 0.1
2018-Jul-15 08:00S 24°08' W 046°18'0 0.0
2018-Jul-15 07:30S 24°08' W 046°18'0 0.0
2018-Jul-15 07:00S 24°08' W 046°18'0 0.0
2018-Jul-15 06:30S 24°08' W 046°18'0 0.0
2018-Jul-15 06:00S 24°08' W 046°18'0 0.1
2018-Jul-15 05:30S 24°08' W 046°18'0 0.0
2018-Jul-15 05:00S 24°08' W 046°18'0 0.0
2018-Jul-15 04:30S 24°08' W 046°18'0 0.1
2018-Jul-15 04:00S 24°08' W 046°18'0 0.1
2018-Jul-15 03:30S 24°08' W 046°18'0 0.0
2018-Jul-15 03:00S 24°08' W 046°18'0 0.0
2018-Jul-15 02:30S 24°08' W 046°18'0 0.1
2018-Jul-15 02:00S 24°08' W 046°18'0 0.1
2018-Jul-15 01:30S 24°08' W 046°18'0 0.0
2018-Jul-15 00:57S 24°08' W 046°18'0 0.1
2018-Jul-15 00:30S 24°08' W 046°18'0 0.0
2018-Jul-15 00:00S 24°08' W 046°18'0 0.1
2018-Jul-14 23:30S 24°08' W 046°18'0 0.1
2018-Jul-14 23:00S 24°08' W 046°18'0 0.0
2018-Jul-14 22:30S 24°08' W 046°18'0 0.1
2018-Jul-14 22:00S 24°08' W 046°18'0 0.0
2018-Jul-14 21:30S 24°08' W 046°18'0 0.1
2018-Jul-14 21:00S 24°08' W 046°18'0 0.0
2018-Jul-14 20:30S 24°08' W 046°18'0 0.0
2018-Jul-14 19:57S 24°08' W 046°18'0 0.0
2018-Jul-14 19:30S 24°08' W 046°18'0 0.0
2018-Jul-14 19:00S 24°08' W 046°18'0 0.0
2018-Jul-14 18:24S 24°08' W 046°18'0 0.0
2018-Jul-14 18:00S 24°08' W 046°18'0 0.0
2018-Jul-14 17:30S 24°08' W 046°18'0 0.0
2018-Jul-14 17:00S 24°08' W 046°18'0 0.1
2018-Jul-14 16:30S 24°08' W 046°18'0 0.0
2018-Jul-14 16:00S 24°08' W 046°18'0 0.0
2018-Jul-14 15:30S 24°08' W 046°18'0 0.0
2018-Jul-14 14:51S 24°08' W 046°18'0 0.1
2018-Jul-14 14:30S 24°08' W 046°18'0 0.0
2018-Jul-14 13:30S 24°08' W 046°18'0 0.1
2018-Jul-14 13:00S 24°08' W 046°18'0 0.1
2018-Jul-14 12:30S 24°08' W 046°18'0 0.2
2018-Jul-14 12:00S 24°07' W 046°18'0 0.2
2018-Jul-14 11:30S 24°08' W 046°18'0 0.1
2018-Jul-14 11:00S 24°08' W 046°18'0 0.0
2018-Jul-14 10:30S 24°08' W 046°18'0 0.0
2018-Jul-14 10:00S 24°08' W 046°18'0 0.2
2018-Jul-14 09:18S 24°07' W 046°18'0 0.0
2018-Jul-14 09:00S 24°07' W 046°18'0 0.0
2018-Jul-14 08:30S 24°07' W 046°18'0 0.0
2018-Jul-14 08:00S 24°07' W 046°18'0 0.0
2018-Jul-14 07:27S 24°07' W 046°18'0 0.0
2018-Jul-14 07:00S 24°07' W 046°18'0 0.1
2018-Jul-14 06:30S 24°07' W 046°18'0 0.1
2018-Jul-14 05:57S 24°07' W 046°18'0 0.1
2018-Jul-14 05:30S 24°07' W 046°18'0 0.0
2018-Jul-14 05:00S 24°07' W 046°18'0 0.0
2018-Jul-14 04:30S 24°08' W 046°18'0 0.0
2018-Jul-14 04:00S 24°07' W 046°18'0 0.1
2018-Jul-14 03:30S 24°08' W 046°18'0 0.0
2018-Jul-14 03:00S 24°08' W 046°18'0 0.0
2018-Jul-14 02:24S 24°08' W 046°18'0 0.0
2018-Jul-14 02:00S 24°08' W 046°18'0 0.0
2018-Jul-14 01:27S 24°08' W 046°18'0 0.0
2018-Jul-14 01:00S 24°08' W 046°18'0 0.0
2018-Jul-14 00:30S 24°07' W 046°18'0 0.0
2018-Jul-14 00:00S 24°07' W 046°18'0 0.0
2018-Jul-13 23:30S 24°07' W 046°18'0 0.0
2018-Jul-13 23:00S 24°07' W 046°18'0 0.0
2018-Jul-13 22:30S 24°07' W 046°18'0 0.0
2018-Jul-13 22:00S 24°07' W 046°18'0 0.0
2018-Jul-13 21:30S 24°07' W 046°18'0 0.0
2018-Jul-13 21:00S 24°07' W 046°18'0 0.0
2018-Jul-13 20:27S 24°07' W 046°18'0 0.0
2018-Jul-13 19:54S 24°07' W 046°18'0 0.0
2018-Jul-13 19:30S 24°07' W 046°18'0 0.0
2018-Jul-13 19:00S 24°07' W 046°18'0 0.0
2018-Jul-13 18:30S 24°07' W 046°18'0 0.1
2018-Jul-13 18:00S 24°07' W 046°18'0 0.0
2018-Jul-13 17:30S 24°07' W 046°18'0 0.0
2018-Jul-13 17:00S 24°07' W 046°18'0 0.0
2018-Jul-13 16:30S 24°07' W 046°18'0 0.0
2018-Jul-13 16:00S 24°07' W 046°18'0 0.0
2018-Jul-13 15:27S 24°07' W 046°18'0 0.0
2018-Jul-13 15:00S 24°07' W 046°18'0 0.0
2018-Jul-13 14:00S 24°07' W 046°18'0 0.0
2018-Jul-13 13:30S 24°07' W 046°18'0 0.1
2018-Jul-13 12:48S 24°07' W 046°18'0 0.1
2018-Jul-13 12:30S 24°08' W 046°18'0 0.0
2018-Jul-13 12:00S 24°08' W 046°18'0 0.0
2018-Jul-13 11:30S 24°07' W 046°18'0 0.0
2018-Jul-13 10:54S 24°07' W 046°18'0 0.0
2018-Jul-13 10:30S 24°07' W 046°18'0 0.0
2018-Jul-13 10:00S 24°07' W 046°18'0 0.0
2018-Jul-13 09:30S 24°07' W 046°18'0 0.0
2018-Jul-13 09:00S 24°07' W 046°18'0 0.0
2018-Jul-13 08:27S 24°07' W 046°18'0 0.0
2018-Jul-13 08:00S 24°07' W 046°18'0 0.0
2018-Jul-13 07:30S 24°07' W 046°18'0 0.0
2018-Jul-13 07:00S 24°07' W 046°18'0 0.0
2018-Jul-13 06:30S 24°07' W 046°18'0 0.0
2018-Jul-13 06:00S 24°07' W 046°18'0 0.0
2018-Jul-13 05:30S 24°07' W 046°18'0 0.0
2018-Jul-13 04:57S 24°07' W 046°18'0 0.0
2018-Jul-13 04:30S 24°07' W 046°18'0 0.0
2018-Jul-13 04:00S 24°07' W 046°18'0 0.0
2018-Jul-13 03:24S 24°07' W 046°18'0 0.1
2018-Jul-13 03:00S 24°07' W 046°18'0 0.0
2018-Jul-13 02:30S 24°07' W 046°18'0 0.0
2018-Jul-13 02:00S 24°07' W 046°18'0 0.0
2018-Jul-13 01:30S 24°07' W 046°18'0 0.0
2018-Jul-13 01:00S 24°07' W 046°18'0 0.0
2018-Jul-13 00:30S 24°07' W 046°18'0 0.0
2018-Jul-13 00:00S 24°07' W 046°18'0 0.0
2018-Jul-12 23:27S 24°07' W 046°18'0 0.0
2018-Jul-12 23:00S 24°07' W 046°18'0 0.0
2018-Jul-12 22:30S 24°07' W 046°18'0 0.1
2018-Jul-12 22:00S 24°07' W 046°18'0 0.0
2018-Jul-12 21:30S 24°07' W 046°18'0 0.0
2018-Jul-12 21:00S 24°07' W 046°18'0 0.0
2018-Jul-12 20:30S 24°07' W 046°18'0 0.0
2018-Jul-12 19:57S 24°07' W 046°18'0 0.0
2018-Jul-12 19:30S 24°07' W 046°18'0 0.0
2018-Jul-12 19:00S 24°07' W 046°18'0 0.2
2018-Jul-12 18:30S 24°08' W 046°18'1 2.7
2018-Jul-12 18:00S 24°07' W 046°19'2 4.3
2018-Jul-12 17:30S 24°05' W 046°20'1 2.0
2018-Jul-12 16:55S 24°04' W 046°21'0 0.0
2018-Jul-12 16:31S 24°04' W 046°21'0 0.1
2018-Jul-12 15:58S 24°04' W 046°21'0 0.0
2018-Jul-12 15:19S 24°04' W 046°21'0 0.0
2018-Jul-12 14:52S 24°04' W 046°21'0 0.1
2018-Jul-12 14:28S 24°04' W 046°21'0 0.1
2018-Jul-12 14:01S 24°04' W 046°21'0 0.0
2018-Jul-12 13:28S 24°04' W 046°21'0 0.1
2018-Jul-12 12:58S 24°04' W 046°21'0 0.2
2018-Jul-12 12:25S 24°04' W 046°21'0 0.9
2018-Jul-12 12:00S 24°04' W 046°21'3 5.9
2018-Jul-12 11:30S 24°07' W 046°22'4 7.2
2018-Jul-12 11:00S 24°10' W 046°23'712.7
2018-Jul-12 10:29S 24°17' W 046°24'611.8
2018-Jul-12 10:00S 24°21' W 046°20'612.2
2018-Jul-12 09:30S 24°25' W 046°15'  

Dump ship's entire track history